createdAt,value
2023-04-28T00:01:07.072Z,4.60
2023-04-28T00:03:37.125Z,4.50
2023-04-28T00:06:07.498Z,4.50
2023-04-28T00:08:37.139Z,4.50
2023-04-28T00:11:11.468Z,4.50
2023-04-28T00:13:40.888Z,4.40
2023-04-28T00:16:10.646Z,4.40
2023-04-28T00:18:40.439Z,4.30
2023-04-28T00:21:10.195Z,4.30
2023-04-28T00:23:39.646Z,4.30
2023-04-28T00:26:12.595Z,4.30
2023-04-28T00:28:41.944Z,4.30
2023-04-28T00:31:16.030Z,4.30
2023-04-28T00:33:45.867Z,4.20
2023-04-28T00:36:15.980Z,4.20
2023-04-28T00:38:45.231Z,4.20
2023-04-28T00:41:16.338Z,4.20
2023-04-28T00:43:49.256Z,4.20
2023-04-28T00:46:24.655Z,4.10
2023-04-28T00:48:54.168Z,4.20
2023-04-28T00:51:24.258Z,4.10
2023-04-28T00:53:53.488Z,4.10
2023-04-28T00:56:24.607Z,4.10
2023-04-28T00:58:54.044Z,4.10
2023-04-28T01:01:23.859Z,4.00
2023-04-28T01:03:53.474Z,3.90
2023-04-28T01:06:24.467Z,3.90
2023-04-28T01:08:53.720Z,3.80
2023-04-28T01:11:24.888Z,3.80
2023-04-28T01:13:54.130Z,3.90
2023-04-28T01:16:23.777Z,3.90
2023-04-28T01:18:53.690Z,3.90
2023-04-28T01:21:30.673Z,3.90
2023-04-28T01:24:01.469Z,4.00
2023-04-28T01:26:31.366Z,4.00
2023-04-28T01:29:00.778Z,3.90
2023-04-28T01:31:31.331Z,3.90
2023-04-28T01:34:00.739Z,3.90
2023-04-28T01:36:30.557Z,3.90
2023-04-28T01:39:01.400Z,3.90
2023-04-28T01:41:31.163Z,3.90
2023-04-28T01:44:00.392Z,3.90
2023-04-28T01:46:30.608Z,3.90
2023-04-28T01:49:00.063Z,3.80
2023-04-28T01:51:29.635Z,3.80
2023-04-28T01:53:59.195Z,3.80
2023-04-28T01:56:30.634Z,3.80
2023-04-28T01:58:59.875Z,3.80
2023-04-28T02:01:29.535Z,3.80
2023-04-28T02:03:59.013Z,3.80
2023-04-28T02:06:29.605Z,3.80
2023-04-28T02:08:58.948Z,3.80
2023-04-28T02:11:30.033Z,3.80
2023-04-28T02:13:59.879Z,3.80
2023-04-28T02:16:29.833Z,3.70
2023-04-28T02:18:59.227Z,3.70
2023-04-28T02:21:29.472Z,3.70
2023-04-28T02:23:59.096Z,3.70
2023-04-28T02:26:30.211Z,3.70
2023-04-28T02:28:59.589Z,3.70
2023-04-28T02:31:29.344Z,3.70
2023-04-28T02:33:58.617Z,3.70
2023-04-28T02:36:29.414Z,3.60
2023-04-28T02:38:58.786Z,3.70
2023-04-28T02:41:31.428Z,3.60
2023-04-28T02:44:00.911Z,3.60
2023-04-28T02:46:30.651Z,3.60
2023-04-28T02:48:59.916Z,3.60
2023-04-28T02:51:29.605Z,3.60
2023-04-28T02:53:58.965Z,3.60
2023-04-28T02:56:31.322Z,3.60
2023-04-28T02:59:00.724Z,3.60
2023-04-28T03:01:30.332Z,3.60
2023-04-28T03:03:59.693Z,3.60
2023-04-28T03:06:29.461Z,3.60
2023-04-28T03:08:58.771Z,3.60
2023-04-28T03:11:30.261Z,3.60
2023-04-28T03:13:59.561Z,3.60
2023-04-28T03:16:29.793Z,3.60
2023-04-28T03:18:59.108Z,3.60
2023-04-28T03:21:29.273Z,3.60
2023-04-28T03:23:58.570Z,3.60
2023-04-28T03:26:29.959Z,3.60
2023-04-28T03:28:58.972Z,3.60
2023-04-28T03:31:29.113Z,3.70
2023-04-28T03:33:59.866Z,3.60
2023-04-28T03:36:29.154Z,3.60
2023-04-28T03:38:58.399Z,3.50
2023-04-28T03:41:29.301Z,3.60
2023-04-28T03:44:00.061Z,3.60
2023-04-28T03:46:29.947Z,3.50
2023-04-28T03:48:59.405Z,3.50
2023-04-28T03:51:29.390Z,3.60
2023-04-28T03:53:59.119Z,3.60
2023-04-28T03:56:28.791Z,3.60
2023-04-28T03:59:00.166Z,3.70
2023-04-28T04:01:29.801Z,3.80
2023-04-28T04:03:59.605Z,3.80
2023-04-28T04:06:29.655Z,4.00
2023-04-28T04:08:59.359Z,4.20
2023-04-28T04:11:29.502Z,4.30
2023-04-28T04:14:00.193Z,4.50
2023-04-28T04:16:30.434Z,4.50
2023-04-28T04:19:00.049Z,4.50
2023-04-28T04:21:29.676Z,4.40
2023-04-28T04:23:59.441Z,4.50
2023-04-28T04:26:29.236Z,4.50
2023-04-28T04:29:00.506Z,4.50
2023-04-28T04:31:30.321Z,4.60
2023-04-28T04:33:59.583Z,4.70
2023-04-28T04:36:29.692Z,4.80
2023-04-28T04:38:58.998Z,4.90
2023-04-28T04:41:29.150Z,5.00
2023-04-28T04:44:00.315Z,5.00
2023-04-28T04:46:30.090Z,5.10
2023-04-28T04:48:59.463Z,5.20
2023-04-28T04:51:29.926Z,5.30
2023-04-28T04:53:59.220Z,5.40
2023-04-28T04:56:29.374Z,5.50
2023-04-28T04:59:00.481Z,5.60
2023-04-28T05:01:30.333Z,5.60
2023-04-28T05:03:59.783Z,5.70
2023-04-28T05:06:30.190Z,5.80
2023-04-28T05:09:02.208Z,5.80
2023-04-28T05:11:32.288Z,5.90
2023-04-28T05:14:03.142Z,5.90
2023-04-28T05:16:33.010Z,5.90
2023-04-28T05:19:03.040Z,6.10
2023-04-28T05:21:32.919Z,6.10
2023-04-28T05:24:05.404Z,6.20
2023-04-28T05:26:35.316Z,6.30
2023-04-28T05:29:09.072Z,6.40
2023-04-28T05:31:38.687Z,6.50
2023-04-28T05:34:08.081Z,6.60
2023-04-28T05:36:38.146Z,6.60
2023-04-28T05:39:07.744Z,6.60
2023-04-28T05:41:38.845Z,6.70
2023-04-28T05:44:09.666Z,6.70
2023-04-28T05:46:40.255Z,6.80
2023-04-28T05:49:12.051Z,6.90
2023-04-28T05:51:42.244Z,6.90
2023-04-28T05:54:11.643Z,7.00
2023-04-28T05:56:41.397Z,7.10
2023-04-28T05:59:12.415Z,7.20
2023-04-28T06:01:42.592Z,7.30
2023-04-28T06:04:12.465Z,7.40
2023-04-28T06:06:42.308Z,7.40
2023-04-28T06:09:11.919Z,7.50
2023-04-28T06:11:42.109Z,7.60
2023-04-28T06:14:12.939Z,7.70
2023-04-28T06:16:42.692Z,7.80
2023-04-28T06:19:12.135Z,7.90
2023-04-28T06:21:41.893Z,8.00
2023-04-28T06:24:11.359Z,8.00
2023-04-28T06:26:41.700Z,8.20
2023-04-28T06:29:12.518Z,8.20
2023-04-28T06:31:42.819Z,8.30
2023-04-28T06:34:15.274Z,8.40
2023-04-28T06:36:45.085Z,8.40
2023-04-28T06:39:14.478Z,8.50
2023-04-28T06:41:44.933Z,8.50
2023-04-28T06:44:15.918Z,8.60
2023-04-28T06:46:46.051Z,8.60
2023-04-28T06:49:15.349Z,8.80
2023-04-28T06:51:45.687Z,8.70
2023-04-28T06:54:15.704Z,8.70
2023-04-28T06:56:45.597Z,8.90
2023-04-28T06:59:16.327Z,8.90
2023-04-28T07:01:45.952Z,8.90
2023-04-28T07:04:16.173Z,9.00
2023-04-28T07:06:46.730Z,9.10
2023-04-28T07:09:16.256Z,9.10
2023-04-28T07:11:46.592Z,9.20
2023-04-28T07:14:17.788Z,9.20
2023-04-28T07:16:47.869Z,9.20
2023-04-28T07:19:17.251Z,9.20
2023-04-28T07:21:47.196Z,9.20
2023-04-28T07:24:16.950Z,9.30
2023-04-28T07:26:49.325Z,9.30
2023-04-28T07:29:20.756Z,9.40
2023-04-28T07:31:50.469Z,9.50
2023-04-28T07:34:19.711Z,9.70
2023-04-28T07:36:49.367Z,9.80
2023-04-28T07:39:18.792Z,9.90
2023-04-28T07:41:48.513Z,10.00
2023-04-28T07:44:19.579Z,10.20
2023-04-28T07:46:52.058Z,10.00
2023-04-28T07:49:21.646Z,9.90
2023-04-28T07:51:53.900Z,9.80
2023-04-28T07:54:23.638Z,9.70
2023-04-28T07:56:53.729Z,9.70
2023-04-28T07:59:25.165Z,9.70
2023-04-28T08:01:55.629Z,9.70
2023-04-28T08:04:25.901Z,9.80
2023-04-28T08:06:56.012Z,9.80
2023-04-28T08:09:25.817Z,9.80
2023-04-28T08:11:55.406Z,9.70
2023-04-28T08:14:26.323Z,9.70
2023-04-28T08:16:56.187Z,9.60
2023-04-28T08:19:25.862Z,9.60
2023-04-28T08:21:56.099Z,9.70
2023-04-28T08:24:25.396Z,9.60
2023-04-28T08:26:55.068Z,9.70
2023-04-28T08:29:26.334Z,9.90
2023-04-28T08:31:56.336Z,10.20
2023-04-28T08:34:25.658Z,10.30
2023-04-28T08:36:55.465Z,10.40
2023-04-28T08:39:26.726Z,10.40
2023-04-28T08:41:56.562Z,10.30
2023-04-28T08:44:27.307Z,10.40
2023-04-28T08:47:00.727Z,10.50
2023-04-28T08:49:37.368Z,10.50
2023-04-28T08:52:13.491Z,10.60
2023-04-28T08:54:43.242Z,10.70
2023-04-28T08:57:13.436Z,10.70
2023-04-28T08:59:44.193Z,10.90
2023-04-28T09:02:14.132Z,11.10
2023-04-28T09:04:43.920Z,11.20
2023-04-28T09:07:14.462Z,11.20
2023-04-28T09:09:45.554Z,11.10
2023-04-28T09:12:15.723Z,11.20
2023-04-28T09:14:46.456Z,11.20
2023-04-28T09:17:17.106Z,11.20
2023-04-28T09:19:46.581Z,11.00
2023-04-28T09:22:26.053Z,11.00
2023-04-28T09:24:56.811Z,11.00
2023-04-28T09:27:29.770Z,11.10
2023-04-28T09:30:00.694Z,11.10
2023-04-28T09:32:32.049Z,11.20
2023-04-28T09:35:02.262Z,11.30
2023-04-28T09:37:33.145Z,11.20
2023-04-28T09:40:07.799Z,10.70
2023-04-28T09:42:38.889Z,10.70
2023-04-28T09:45:11.687Z,10.60
2023-04-28T09:47:43.004Z,10.70
2023-04-28T09:50:15.277Z,10.90
2023-04-28T09:52:49.354Z,10.90
2023-04-28T09:55:20.707Z,10.80
2023-04-28T09:57:54.725Z,10.90
2023-04-28T10:00:26.285Z,11.10
2023-04-28T10:02:56.370Z,11.10
2023-04-28T10:05:26.256Z,11.20
2023-04-28T10:07:57.510Z,11.30
2023-04-28T10:10:28.624Z,11.30
2023-04-28T10:13:00.013Z,11.40
2023-04-28T10:15:30.881Z,11.50
2023-04-28T10:18:02.518Z,11.30
2023-04-28T10:20:32.011Z,11.30
2023-04-28T10:23:13.022Z,11.30
2023-04-28T10:25:44.251Z,11.40
2023-04-28T10:28:14.036Z,11.50
2023-04-28T10:30:44.970Z,11.50
2023-04-28T10:33:29.967Z,11.70
2023-04-28T10:35:59.668Z,12.00
2023-04-28T10:38:29.300Z,12.20
2023-04-28T10:41:02.878Z,12.20
2023-04-28T10:43:38.200Z,12.40
2023-04-28T10:46:10.484Z,12.30
2023-04-28T10:49:07.118Z,12.40
2023-04-28T10:51:38.387Z,12.50
2023-04-28T10:54:12.113Z,12.50
2023-04-28T10:56:42.492Z,12.10
2023-04-28T10:59:28.519Z,12.00
2023-04-28T11:02:40.968Z,11.80
2023-04-28T11:05:19.327Z,11.90
2023-04-28T11:08:35.404Z,12.10
2023-04-28T11:11:21.423Z,12.00
2023-04-28T11:13:51.900Z,12.10
2023-04-28T11:16:22.577Z,12.40
2023-04-28T11:18:56.243Z,12.50
2023-04-28T11:21:28.514Z,12.70
2023-04-28T11:23:59.055Z,13.10
2023-04-28T11:26:30.003Z,14.60
2023-04-28T11:29:00.250Z,15.70
2023-04-28T11:31:30.280Z,16.30
2023-04-28T11:34:06.501Z,16.00
2023-04-28T11:36:38.026Z,15.10
2023-04-28T11:39:08.041Z,14.10
2023-04-28T11:41:38.459Z,13.70
2023-04-28T11:44:18.420Z,13.30
2023-04-28T11:46:51.273Z,13.20
2023-04-28T11:49:24.752Z,13.30
2023-04-28T11:51:55.080Z,13.60
2023-04-28T11:54:26.673Z,14.10
2023-04-28T11:57:01.287Z,14.50
2023-04-28T11:59:34.133Z,14.70
2023-04-28T12:02:07.339Z,15.10
2023-04-28T12:04:39.609Z,14.70
2023-04-28T12:07:10.856Z,14.10
2023-04-28T12:09:41.889Z,13.50
2023-04-28T12:12:12.974Z,13.40
2023-04-28T12:14:58.111Z,13.40
2023-04-28T12:17:28.615Z,13.50
2023-04-28T12:20:01.213Z,13.50
2023-04-28T12:22:31.750Z,13.70
2023-04-28T12:25:08.885Z,13.70
2023-04-28T12:27:40.834Z,13.80
2023-04-28T12:30:32.392Z,14.00
2023-04-28T12:33:02.300Z,14.20
2023-04-28T12:35:33.504Z,14.30
2023-04-28T12:38:03.677Z,14.10
2023-04-28T12:40:33.036Z,14.20
2023-04-28T12:43:03.176Z,14.20
2023-04-28T12:45:33.241Z,14.10
2023-04-28T12:48:02.898Z,14.30
2023-04-28T12:50:33.926Z,14.00
2023-04-28T12:53:03.694Z,13.80
2023-04-28T12:55:33.171Z,13.60
2023-04-28T12:58:03.333Z,13.50
2023-04-28T13:00:32.728Z,13.60
2023-04-28T13:03:02.457Z,13.80
2023-04-28T13:05:35.317Z,13.60
2023-04-28T13:08:05.198Z,13.70
2023-04-28T13:10:34.466Z,13.80
2023-04-28T13:13:05.814Z,14.30
2023-04-28T13:15:38.528Z,14.50
2023-04-28T13:18:09.369Z,14.70
2023-04-28T13:20:40.700Z,15.00
2023-04-28T13:23:10.349Z,15.10
2023-04-28T13:25:39.716Z,15.20
2023-04-28T13:28:09.495Z,15.00
2023-04-28T13:30:38.889Z,15.00
2023-04-28T13:33:09.109Z,14.80
2023-04-28T13:35:39.900Z,14.60
2023-04-28T13:38:09.752Z,14.70
2023-04-28T13:40:39.014Z,15.00
2023-04-28T13:43:08.804Z,15.30
2023-04-28T13:45:38.418Z,15.10
2023-04-28T13:48:08.219Z,15.20
2023-04-28T13:50:39.569Z,14.90
2023-04-28T13:53:11.283Z,15.00
2023-04-28T13:55:43.497Z,14.80
2023-04-28T13:58:13.233Z,15.20
2023-04-28T14:00:42.577Z,15.50
2023-04-28T14:03:12.435Z,16.40
2023-04-28T14:05:49.381Z,17.30
2023-04-28T14:08:21.452Z,18.10
2023-04-28T14:10:51.599Z,18.50
2023-04-28T14:13:22.012Z,18.90
2023-04-28T14:15:58.974Z,18.80
2023-04-28T14:18:30.032Z,18.50
2023-04-28T14:20:59.598Z,18.10
2023-04-28T14:23:33.638Z,17.40
2023-04-28T14:26:03.194Z,16.60
2023-04-28T14:28:33.296Z,16.20
2023-04-28T14:31:07.621Z,15.70
2023-04-28T14:33:37.822Z,15.20
2023-04-28T14:36:07.527Z,14.70
2023-04-28T14:38:40.281Z,14.60
2023-04-28T14:41:09.934Z,14.60
2023-04-28T14:43:40.480Z,15.00
2023-04-28T14:46:10.066Z,15.70
2023-04-28T14:48:40.096Z,15.90
2023-04-28T14:51:09.600Z,15.90
2023-04-28T14:53:40.925Z,16.00
2023-04-28T14:56:18.660Z,15.90
2023-04-28T14:58:49.350Z,15.70
2023-04-28T15:01:19.454Z,15.50
2023-04-28T15:03:49.260Z,15.30
2023-04-28T15:06:18.626Z,15.00
2023-04-28T15:08:49.929Z,14.90
2023-04-28T15:11:19.328Z,15.20
2023-04-28T15:13:49.679Z,15.40
2023-04-28T15:16:19.195Z,15.50
2023-04-28T15:18:48.790Z,15.40
2023-04-28T15:21:18.120Z,15.10
2023-04-28T15:23:49.312Z,14.90
2023-04-28T15:26:18.216Z,14.50
2023-04-28T15:28:47.932Z,14.20
2023-04-28T15:31:17.775Z,14.10
2023-04-28T15:33:48.073Z,14.00
2023-04-28T15:36:18.882Z,13.90
2023-04-28T15:38:52.026Z,13.90
2023-04-28T15:41:21.896Z,13.80
2023-04-28T15:43:51.479Z,14.00
2023-04-28T15:46:23.296Z,14.20
2023-04-28T15:48:52.930Z,14.00
2023-04-28T15:51:24.063Z,13.90
2023-04-28T15:53:56.086Z,13.90
2023-04-28T15:56:27.239Z,14.00
2023-04-28T15:58:57.060Z,14.10
2023-04-28T16:01:26.566Z,14.30
2023-04-28T16:03:56.476Z,14.30
2023-04-28T16:06:26.785Z,14.60
2023-04-28T16:08:58.353Z,14.50
2023-04-28T16:11:27.456Z,14.60
2023-04-28T16:13:57.464Z,14.70
2023-04-28T16:16:27.052Z,14.50
2023-04-28T16:18:56.800Z,14.40
2023-04-28T16:21:26.434Z,14.60
2023-04-28T16:23:56.018Z,14.40
2023-04-28T16:26:27.065Z,14.10
2023-04-28T16:28:56.680Z,13.70
2023-04-28T16:31:26.323Z,13.40
2023-04-28T16:33:56.073Z,13.10
2023-04-28T16:36:25.842Z,13.00
2023-04-28T16:38:55.606Z,13.00
2023-04-28T16:41:26.561Z,12.60
2023-04-28T16:43:56.942Z,12.50
2023-04-28T16:46:26.689Z,12.40
2023-04-28T16:48:56.469Z,12.30
2023-04-28T16:51:26.231Z,12.30
2023-04-28T16:53:56.022Z,12.20
2023-04-28T16:56:27.648Z,11.90
2023-04-28T16:58:57.558Z,11.50
2023-04-28T17:01:27.003Z,11.10
2023-04-28T17:03:57.401Z,10.80
2023-04-28T17:06:28.258Z,10.50
2023-04-28T17:08:57.478Z,10.10
2023-04-28T17:11:28.588Z,10.00
2023-04-28T17:13:58.449Z,9.80
2023-04-28T17:16:27.739Z,9.70
2023-04-28T17:18:57.661Z,9.60
2023-04-28T17:21:29.471Z,9.40
2023-04-28T17:23:59.258Z,9.20
2023-04-28T17:26:31.523Z,9.10
2023-04-28T17:29:02.551Z,9.00
2023-04-28T17:31:31.983Z,8.80
2023-04-28T17:34:02.903Z,8.80
2023-04-28T17:36:33.688Z,8.70
2023-04-28T17:39:04.820Z,8.60
2023-04-28T17:41:35.698Z,8.60
2023-04-28T17:44:05.672Z,8.60
2023-04-28T17:46:35.043Z,8.50
2023-04-28T17:49:04.916Z,8.50
2023-04-28T17:51:34.218Z,8.40
2023-04-28T17:54:06.334Z,8.40
2023-04-28T17:56:38.661Z,8.40
2023-04-28T17:59:09.223Z,8.30
2023-04-28T18:01:38.648Z,8.30
2023-04-28T18:04:08.281Z,8.20
2023-04-28T18:06:37.568Z,8.10
2023-04-28T18:09:07.256Z,8.10
2023-04-28T18:11:38.122Z,8.10
2023-04-28T18:14:08.354Z,8.00
2023-04-28T18:16:38.280Z,7.90
2023-04-28T18:19:08.630Z,7.80
2023-04-28T18:21:38.935Z,7.80
2023-04-28T18:24:08.715Z,7.80
2023-04-28T18:26:39.642Z,7.70
2023-04-28T18:29:09.384Z,7.80
2023-04-28T18:31:38.764Z,7.70
2023-04-28T18:34:08.577Z,7.70
2023-04-28T18:36:37.849Z,7.70
2023-04-28T18:39:08.967Z,7.60
2023-04-28T18:41:40.335Z,7.60
2023-04-28T18:44:10.132Z,7.70
2023-04-28T18:46:40.098Z,7.70
2023-04-28T18:49:10.632Z,7.70
2023-04-28T18:51:40.436Z,7.60
2023-04-28T18:54:10.053Z,7.70
2023-04-28T18:56:41.702Z,7.60
2023-04-28T18:59:11.475Z,7.60
2023-04-28T19:01:40.989Z,7.50
2023-04-28T19:04:10.841Z,7.50
2023-04-28T19:06:40.235Z,7.50
2023-04-28T19:09:09.854Z,7.50
2023-04-28T19:11:40.590Z,7.50
2023-04-28T19:14:09.874Z,7.50
2023-04-28T19:16:39.338Z,7.40
2023-04-28T19:19:09.876Z,7.40
2023-04-28T19:21:44.947Z,7.40
2023-04-28T19:24:14.610Z,7.40
2023-04-28T19:26:45.399Z,7.40
2023-04-28T19:29:17.479Z,7.40
2023-04-28T19:31:49.170Z,7.40
2023-04-28T19:34:19.467Z,7.40
2023-04-28T19:36:48.823Z,7.40
2023-04-28T19:39:18.829Z,7.40
2023-04-28T19:41:49.760Z,7.40
2023-04-28T19:44:19.524Z,7.40
2023-04-28T19:46:48.874Z,7.40
2023-04-28T19:49:18.859Z,7.40
2023-04-28T19:51:48.406Z,7.30
2023-04-28T19:54:18.460Z,7.40
2023-04-28T19:56:49.176Z,7.40
2023-04-28T19:59:18.873Z,7.40
2023-04-28T20:01:48.199Z,7.30
2023-04-28T20:04:18.109Z,7.30
2023-04-28T20:06:48.042Z,7.20
2023-04-28T20:09:19.112Z,7.20
2023-04-28T20:11:49.832Z,7.20
2023-04-28T20:14:21.785Z,7.20
2023-04-28T20:16:51.764Z,7.10
2023-04-28T20:19:21.923Z,7.20
2023-04-28T20:21:51.298Z,7.10
2023-04-28T20:24:20.949Z,7.20
2023-04-28T20:26:52.141Z,7.10
2023-04-28T20:29:21.920Z,7.20
2023-04-28T20:31:51.856Z,7.20
2023-04-28T20:34:22.429Z,7.30
2023-04-28T20:36:53.336Z,7.20
2023-04-28T20:39:22.971Z,7.20
2023-04-28T20:41:53.968Z,7.20
2023-04-28T20:44:24.155Z,7.20
2023-04-28T20:46:53.796Z,7.20
2023-04-28T20:49:24.204Z,7.20
2023-04-28T20:51:53.423Z,7.20
2023-04-28T20:54:23.259Z,7.20
2023-04-28T20:56:54.367Z,7.20
2023-04-28T20:59:24.005Z,7.20
2023-04-28T21:01:53.301Z,7.20
2023-04-28T21:04:23.040Z,7.20
2023-04-28T21:06:53.621Z,7.30
2023-04-28T21:09:25.324Z,7.30
2023-04-28T21:11:56.635Z,7.30
2023-04-28T21:14:27.184Z,7.30
2023-04-28T21:16:56.658Z,7.20
2023-04-28T21:19:26.422Z,7.20
2023-04-28T21:21:55.663Z,7.20
2023-04-28T21:24:25.572Z,7.20
2023-04-28T21:26:56.358Z,7.10
2023-04-28T21:29:27.847Z,7.10
2023-04-28T21:31:57.652Z,7.10
2023-04-28T21:34:27.964Z,7.00
2023-04-28T21:36:58.040Z,7.00
2023-04-28T21:39:27.944Z,7.10
2023-04-28T21:41:58.792Z,7.10
2023-04-28T21:44:28.831Z,7.00
2023-04-28T21:46:58.162Z,7.00
2023-04-28T21:49:28.764Z,7.00
2023-04-28T21:51:57.980Z,7.00
2023-04-28T21:54:28.059Z,7.00
2023-04-28T21:56:58.870Z,7.00
2023-04-28T21:59:28.813Z,6.90
2023-04-28T22:01:59.953Z,6.90
2023-04-28T22:04:31.172Z,6.90
2023-04-28T22:07:00.948Z,6.90
2023-04-28T22:09:30.994Z,6.80
2023-04-28T22:12:02.049Z,6.70
2023-04-28T22:17:03.890Z,6.60
2023-04-28T22:19:33.607Z,6.60
2023-04-28T22:22:03.032Z,6.50
2023-04-28T22:24:33.180Z,6.50
2023-04-28T22:27:04.029Z,6.50
2023-04-28T22:29:34.026Z,6.40
2023-04-28T22:32:04.852Z,6.50
2023-04-28T22:34:34.900Z,6.40
2023-04-28T22:37:04.189Z,6.40
2023-04-28T22:39:33.903Z,6.40
2023-04-28T22:42:04.621Z,6.40
2023-04-28T22:44:34.531Z,6.40
2023-04-28T22:47:04.017Z,6.30
2023-04-28T22:49:33.806Z,6.30
2023-04-28T22:52:04.185Z,6.30
2023-04-28T22:54:34.739Z,6.30
2023-04-28T22:57:05.685Z,6.20
2023-04-28T22:59:35.482Z,6.20
2023-04-28T23:02:04.986Z,6.20
2023-04-28T23:04:35.068Z,6.20
2023-04-28T23:07:04.509Z,6.20
2023-04-28T23:09:36.432Z,6.10
2023-04-28T23:12:07.631Z,6.10
2023-04-28T23:14:37.341Z,6.10
2023-04-28T23:17:06.655Z,6.10
2023-04-28T23:19:39.602Z,6.00
2023-04-28T23:22:09.423Z,6.00
2023-04-28T23:24:40.264Z,6.00
2023-04-28T23:27:11.337Z,6.00
2023-04-28T23:29:40.972Z,5.90
2023-04-28T23:32:11.323Z,6.00
2023-04-28T23:34:42.434Z,5.90
2023-04-28T23:37:12.355Z,5.90
2023-04-28T23:39:42.882Z,5.90
2023-04-28T23:42:13.603Z,5.80
2023-04-28T23:44:43.766Z,5.80
2023-04-28T23:47:14.728Z,5.80
2023-04-28T23:49:44.460Z,5.90
2023-04-28T23:52:13.708Z,5.80
2023-04-28T23:54:43.825Z,5.80
2023-04-28T23:57:14.544Z,5.80
2023-04-28T23:59:44.133Z,5.70
